Time;durP1;ratioP1;P1;durP2;ratioP2;P2;SDS_P1;SDS_P2;PMS_P1;PMS_P2;Temp;Humidity;BMP_temperature;BMP_pressure;BME280_temperature;BME280_humidity;BME280_pressure;Samples;Min_cycle;Max_cycle;Signal;HPM_P1;HPM_P2
2023/05/04 00:01:25;;;;;;;6.65;3.08;;;;;;;7.35;81.52;99920.13;4945925;28;20078;-62
2023/05/04 00:03:53;;;;;;;6.68;3.05;;;;;;;7.28;80.00;99908.63;4955129;28;20596;-62
2023/05/04 00:06:20;;;;;;;6.53;2.92;;;;;;;7.10;80.76;99907.38;4951472;28;20347;-62
2023/05/04 00:08:47;;;;;;;7.28;3.20;;;;;;;6.88;80.55;99901.38;4944014;28;20047;-62
2023/05/04 00:11:16;;;;;;;6.20;2.90;;;;;;;7.21;80.41;99905.13;4947046;28;20040;-62
2023/05/04 00:13:44;;;;;;;8.13;3.20;;;;;;;6.99;81.24;99899.13;4943231;28;20195;-62
2023/05/04 00:16:11;;;;;;;5.72;3.10;;;;;;;7.04;81.09;99894.03;4939242;28;20139;-62
2023/05/04 00:18:38;;;;;;;5.88;3.53;;;;;;;6.74;83.52;99891.72;4945363;28;20357;-62
2023/05/04 00:21:05;;;;;;;4.80;3.10;;;;;;;6.67;84.67;99890.91;4951310;28;20069;-62
2023/05/04 00:23:32;;;;;;;7.70;3.10;;;;;;;6.36;84.93;99894.03;4949793;28;20272;-62
2023/05/04 00:25:59;;;;;;;5.50;3.40;;;;;;;6.37;84.64;99896.53;4948315;28;20035;-62
2023/05/04 00:28:27;;;;;;;7.28;3.90;;;;;;;6.17;85.30;99891.09;4943618;28;20519;-62
2023/05/04 00:30:54;;;;;;;6.57;3.80;;;;;;;6.02;87.78;99883.25;4941500;28;20046;-62
2023/05/04 00:33:22;;;;;;;6.00;3.70;;;;;;;6.14;90.97;99886.19;4947999;28;20462;-62
2023/05/04 00:35:49;;;;;;;6.57;3.50;;;;;;;5.97;86.71;99884.88;4939030;28;20388;-62
2023/05/04 00:38:17;;;;;;;5.28;2.90;;;;;;;5.84;88.01;99890.88;4941419;28;20375;-62
2023/05/04 00:40:44;;;;;;;6.03;3.25;;;;;;;6.02;87.67;99882.44;4949034;28;20091;-63
2023/05/04 00:43:12;;;;;;;6.00;3.53;;;;;;;6.14;91.24;99880.88;4949526;28;20043;-62
2023/05/04 00:45:40;;;;;;;7.20;3.40;;;;;;;6.03;86.32;99873.41;4944180;28;20051;-62
2023/05/04 00:48:07;;;;;;;6.18;3.22;;;;;;;6.23;86.93;99869.00;4946449;28;20090;-62
2023/05/04 00:50:34;;;;;;;5.75;3.25;;;;;;;6.17;85.97;99872.47;4939286;28;20048;-63
2023/05/04 00:53:03;;;;;;;8.10;3.22;;;;;;;6.15;85.63;99865.72;4942699;28;20051;-62
2023/05/04 00:55:30;;;;;;;6.20;3.30;;;;;;;6.01;84.75;99864.81;4942557;28;20047;-61
2023/05/04 00:57:57;;;;;;;5.00;3.65;;;;;;;5.79;86.71;99872.88;4943453;28;20396;-61
2023/05/04 01:00:24;;;;;;;10.27;3.45;;;;;;;5.52;88.82;99860.41;4945034;28;20122;-62
2023/05/04 01:02:53;;;;;;;4.40;3.10;;;;;;;5.47;89.28;99865.50;4947163;28;20162;-62
2023/05/04 01:05:22;;;;;;;9.77;3.65;;;;;;;5.62;92.56;99856.38;4945331;28;20047;-62
2023/05/04 01:07:53;;;;;;;5.93;3.75;;;;;;;5.55;90.83;99860.00;4940145;28;20126;-62
2023/05/04 01:10:22;;;;;;;6.35;3.72;;;;;;;5.72;89.75;99856.03;4954100;28;20051;-61
2023/05/04 01:12:51;;;;;;;6.93;3.50;;;;;;;5.53;88.90;99860.19;4940502;28;20048;-62
2023/05/04 01:15:18;;;;;;;6.65;3.50;;;;;;;5.56;89.38;99859.81;4946654;28;20494;-61
2023/05/04 01:17:45;;;;;;;6.03;3.67;;;;;;;5.53;89.12;99859.38;4942015;28;20051;-62
2023/05/04 01:20:15;;;;;;;6.38;3.40;;;;;;;5.45;89.58;99855.03;4953014;28;20387;-62
2023/05/04 01:22:47;;;;;;;7.85;3.53;;;;;;;5.45;90.34;99862.19;4942545;28;20046;-61
2023/05/04 01:25:15;;;;;;;5.45;3.63;;;;;;;5.18;92.00;99861.97;4942966;28;20518;-62
2023/05/04 01:27:45;;;;;;;8.00;3.78;;;;;;;5.06;91.53;99855.53;4954887;28;20074;-61
2023/05/04 01:30:14;;;;;;;6.13;3.95;;;;;;;5.37;90.13;99863.97;4946531;28;20189;-61
2023/05/04 01:32:44;;;;;;;9.48;3.90;;;;;;;5.54;90.34;99863.66;4947379;28;20051;-61
2023/05/04 01:35:12;;;;;;;7.75;3.50;;;;;;;5.57;89.12;99868.63;4944484;28;20458;-61
2023/05/04 01:37:39;;;;;;;8.43;3.85;;;;;;;5.31;90.13;99859.41;4948818;28;20055;-61
2023/05/04 01:40:09;;;;;;;6.93;3.60;;;;;;;5.61;89.63;99860.03;4938825;28;20554;-63
2023/05/04 01:42:36;;;;;;;8.97;4.03;;;;;;;5.43;89.45;99862.38;4947487;28;20422;-66
2023/05/04 01:45:06;;;;;;;5.80;3.58;;;;;;;5.37;89.54;99863.97;4960776;28;20046;-61
2023/05/04 01:47:33;;;;;;;7.07;3.90;;;;;;;5.19;90.54;99861.78;4940413;28;20062;-62
2023/05/04 01:50:00;;;;;;;6.72;3.92;;;;;;;5.09;90.37;99860.47;4928514;29;20090;-61
2023/05/04 01:52:28;;;;;;;7.07;3.88;;;;;;;5.10;90.58;99851.50;4949552;28;20561;-62
2023/05/04 01:54:55;;;;;;;7.90;4.13;;;;;;;5.05;91.44;99856.56;4941001;28;20038;-61
2023/05/04 01:57:23;;;;;;;6.97;4.05;;;;;;;5.10;90.53;99851.50;4947303;28;20130;-61
2023/05/04 01:59:50;;;;;;;7.28;3.97;;;;;;;5.12;91.24;99854.78;4948258;28;20131;-62
2023/05/04 02:02:17;;;;;;;9.77;3.85;;;;;;;5.03;90.92;99855.91;4950293;28;20463;-61
2023/05/04 02:04:45;;;;;;;5.60;3.88;;;;;;;5.03;92.27;99856.75;4949332;28;20498;-61
2023/05/04 02:07:13;;;;;;;9.13;4.40;;;;;;;5.07;90.81;99850.03;4933702;28;20054;-62
2023/05/04 02:09:42;;;;;;;7.43;3.90;;;;;;;5.19;91.13;99842.34;4949328;28;20134;-62
2023/05/04 02:12:09;;;;;;;9.00;4.63;;;;;;;5.20;90.59;99846.66;4946572;28;20055;-61
2023/05/04 02:14:38;;;;;;;7.75;4.20;;;;;;;5.34;89.47;99843.09;4942235;28;20042;-62
2023/05/04 02:17:06;;;;;;;10.00;5.63;;;;;;;5.43;90.80;99843.78;4942107;28;20063;-62
2023/05/04 02:19:33;;;;;;;10.68;4.97;;;;;;;5.37;89.86;99842.72;4945333;28;20521;-62
2023/05/04 02:22:00;;;;;;;9.38;4.88;;;;;;;5.27;90.41;99847.53;4952794;28;20315;-61
2023/05/04 02:24:27;;;;;;;9.25;5.03;;;;;;;5.13;90.98;99845.78;4945930;28;20500;-62
2023/05/04 02:26:54;;;;;;;8.55;4.43;;;;;;;5.03;91.75;99847.94;4940899;28;20067;-62
2023/05/04 02:29:21;;;;;;;10.07;4.88;;;;;;;4.90;91.22;99849.47;4932851;28;20107;-61
2023/05/04 02:31:49;;;;;;;6.55;4.50;;;;;;;4.90;92.73;99852.13;4942506;28;20139;-61
2023/05/04 02:34:16;;;;;;;5.78;4.20;;;;;;;4.90;92.75;99846.81;4953594;28;20047;-61
2023/05/04 02:36:47;;;;;;;12.70;5.35;;;;;;;4.90;92.95;99844.16;4941674;28;20039;-61
2023/05/04 02:39:14;;;;;;;6.68;4.43;;;;;;;4.78;91.64;99837.72;4939710;28;20050;-61
2023/05/04 02:41:41;;;;;;;7.65;4.45;;;;;;;4.78;94.87;99842.22;4938968;28;20505;-61
2023/05/04 02:44:08;;;;;;;6.93;4.30;;;;;;;4.75;93.74;99836.25;4940815;28;20553;-62
2023/05/04 02:46:35;;;;;;;8.52;4.85;;;;;;;4.74;92.50;99842.59;4943922;28;20105;-61
2023/05/04 02:49:04;;;;;;;6.60;4.13;;;;;;;4.73;92.69;99840.13;4946591;28;20090;-61
2023/05/04 02:51:31;;;;;;;8.50;4.70;;;;;;;4.81;95.87;99841.81;4945295;28;20051;-61
2023/05/04 02:53:58;;;;;;;6.63;4.68;;;;;;;4.81;93.17;99841.81;4937995;28;20049;-61
2023/05/04 02:56:25;;;;;;;10.82;4.75;;;;;;;4.84;95.37;99852.06;4938702;28;20051;-61
2023/05/04 02:58:52;;;;;;;10.98;4.47;;;;;;;4.96;96.15;99851.34;4939340;28;20079;-61
2023/05/04 03:01:19;;;;;;;7.45;5.28;;;;;;;4.88;93.71;99848.84;4957768;28;20047;-62
2023/05/04 03:03:46;;;;;;;7.72;4.45;;;;;;;4.84;93.00;99842.28;4941227;28;20056;-61
2023/05/04 03:06:14;;;;;;;10.55;4.72;;;;;;;4.71;92.78;99834.16;4943418;28;20054;-61
2023/05/04 03:08:41;;;;;;;9.85;4.40;;;;;;;4.95;99.23;99839.09;4949264;28;20090;-62
2023/05/04 03:11:08;;;;;;;7.30;4.45;;;;;;;5.11;97.39;99842.50;4947987;28;20043;-61
2023/05/04 03:13:35;;;;;;;10.82;5.25;;;;;;;5.11;93.88;99838.00;4933966;28;20130;-61
2023/05/04 03:16:03;;;;;;;8.60;4.70;;;;;;;5.12;94.86;99838.84;4936114;28;20736;-61
2023/05/04 03:18:30;;;;;;;12.02;4.57;;;;;;;5.14;95.98;99844.75;4957784;28;20488;-62
2023/05/04 03:20:58;;;;;;;9.18;4.40;;;;;;;4.78;92.77;99840.38;4939655;28;20070;-61
2023/05/04 03:23:26;;;;;;;8.13;4.45;;;;;;;4.79;95.82;99839.34;4936588;28;20103;-62
2023/05/04 03:25:53;;;;;;;8.13;4.35;;;;;;;4.81;96.02;99832.00;4936686;28;20054;-61
2023/05/04 03:28:20;;;;;;;7.45;4.32;;;;;;;4.79;93.02;99828.72;4941433;28;20095;-63
2023/05/04 03:30:47;;;;;;;8.43;4.63;;;;;;;4.69;93.18;99839.69;4949766;28;20071;-62
2023/05/04 03:33:15;;;;;;;6.97;4.47;;;;;;;4.54;93.94;99826.47;4944556;28;20099;-61
2023/05/04 03:35:42;;;;;;;9.25;4.55;;;;;;;4.24;95.85;99835.50;4940675;28;20044;-62
2023/05/04 03:38:10;;;;;;;9.10;4.95;;;;;;;4.26;96.45;99825.53;4940839;28;20537;-61
2023/05/04 03:40:38;;;;;;;8.88;4.85;;;;;;;4.43;96.01;99826.94;4955789;28;20053;-62
2023/05/04 03:43:05;;;;;;;9.45;5.25;;;;;;;4.63;96.48;99829.00;4947223;28;20234;-62
2023/05/04 03:45:33;;;;;;;6.25;4.50;;;;;;;4.71;97.06;99823.53;4939606;28;20039;-61
2023/05/04 03:48:00;;;;;;;6.28;4.32;;;;;;;4.58;94.89;99820.78;4942066;28;20052;-61
2023/05/04 03:50:27;;;;;;;6.63;4.53;;;;;;;4.53;94.03;99816.84;4942645;28;20039;-62
2023/05/04 03:52:54;;;;;;;8.30;4.85;;;;;;;4.55;93.89;99811.34;4938605;28;20071;-61
2023/05/04 03:55:24;;;;;;;11.80;4.93;;;;;;;4.22;96.82;99803.84;4941071;28;20604;-61
2023/05/04 03:57:52;;;;;;;9.60;4.43;;;;;;;4.40;98.28;99808.75;4948457;28;20410;-61
2023/05/04 04:00:20;;;;;;;7.43;4.50;;;;;;;4.37;98.06;99798.50;4948480;28;20054;-61
2023/05/04 04:02:55;;;;;;;6.82;4.43;;;;;;;4.52;96.78;99807.25;4941486;28;20079;-62
2023/05/04 04:05:22;;;;;;;6.20;4.05;;;;;;;4.39;95.04;99807.09;4947993;28;20053;-62
2023/05/04 04:07:51;;;;;;;6.43;4.25;;;;;;;4.38;95.91;99808.09;4947324;28;20103;-61
2023/05/04 04:10:18;;;;;;;9.50;4.28;;;;;;;4.63;99.48;99810.41;4947416;28;20040;-61
2023/05/04 04:12:45;;;;;;;9.35;4.88;;;;;;;4.49;95.49;99804.97;4947837;28;20047;-62
2023/05/04 04:15:13;;;;;;;7.45;4.75;;;;;;;4.69;95.40;99812.28;4945311;28;20055;-61
2023/05/04 04:17:40;;;;;;;14.30;4.90;;;;;;;4.63;93.92;99813.06;4951617;28;20139;-62
2023/05/04 04:20:08;;;;;;;8.70;4.38;;;;;;;4.96;97.50;99813.34;4950093;28;20406;-62
2023/05/04 04:22:35;;;;;;;6.70;4.35;;;;;;;4.75;92.71;99811.53;4950660;28;20042;-62
2023/05/04 04:25:03;;;;;;;10.15;4.60;;;;;;;4.43;95.89;99804.88;4947403;28;20055;-62
2023/05/04 04:27:30;;;;;;;8.15;4.60;;;;;;;4.70;94.43;99809.44;4944299;28;20138;-61
2023/05/04 04:29:57;;;;;;;6.85;4.53;;;;;;;4.88;94.97;99808.19;4945350;28;20043;-61
2023/05/04 04:32:25;;;;;;;7.25;4.38;;;;;;;4.83;94.12;99808.75;4948482;28;20063;-61
2023/05/04 04:34:53;;;;;;;10.55;4.30;;;;;;;5.10;93.65;99814.28;4945604;28;20383;-61
2023/05/04 04:37:20;;;;;;;7.35;4.90;;;;;;;5.34;91.32;99821.84;4949795;28;20051;-61
2023/05/04 04:39:47;;;;;;;9.57;4.60;;;;;;;5.49;90.62;99823.56;4949054;28;20078;-61
2023/05/04 04:42:14;;;;;;;7.90;4.47;;;;;;;5.61;88.88;99824.66;4944822;28;20126;-61
2023/05/04 04:44:41;;;;;;;8.38;4.70;;;;;;;5.34;90.37;99819.19;4949955;28;20273;-61
2023/05/04 04:47:08;;;;;;;7.90;4.75;;;;;;;5.76;89.46;99824.53;4954693;28;20379;-61
2023/05/04 04:49:36;;;;;;;7.45;4.28;;;;;;;5.87;88.13;99823.19;4947083;28;20047;-61
2023/05/04 04:52:03;;;;;;;12.88;5.13;;;;;;;5.62;90.65;99823.66;4944139;28;20427;-61
2023/05/04 04:54:30;;;;;;;9.55;4.63;;;;;;;6.06;88.91;99817.13;4941393;28;20049;-61
2023/05/04 04:56:58;;;;;;;7.90;4.65;;;;;;;6.22;86.54;99814.13;4942421;28;20134;-64
2023/05/04 04:59:25;;;;;;;8.20;5.18;;;;;;;6.11;86.50;99816.53;4960393;28;20047;-61
2023/05/04 05:01:52;;;;;;;6.50;4.65;;;;;;;6.71;87.33;99828.19;4947841;28;20130;-63
2023/05/04 05:04:21;;;;;;;8.25;4.88;;;;;;;7.13;81.89;99821.66;4950055;28;20083;-63
2023/05/04 05:06:50;;;;;;;11.38;4.88;;;;;;;7.57;80.96;99827.38;4950309;28;20153;-63
2023/05/04 05:09:17;;;;;;;10.23;4.72;;;;;;;7.96;77.78;99830.94;4943555;28;20046;-62
2023/05/04 05:11:44;;;;;;;7.90;4.88;;;;;;;8.41;79.27;99834.50;4945274;28;20149;-63
2023/05/04 05:14:11;;;;;;;6.28;4.28;;;;;;;8.64;75.58;99833.16;4941119;28;20054;-62
2023/05/04 05:16:38;;;;;;;6.47;4.30;;;;;;;9.81;71.69;99832.56;4934835;28;20056;-61
2023/05/04 05:19:05;;;;;;;8.93;3.92;;;;;;;11.35;63.52;99824.88;4938778;28;20073;-61
2023/05/04 05:21:32;;;;;;;9.20;4.28;;;;;;;12.15;60.66;99826.09;4945551;28;20044;-61
2023/05/04 05:24:01;;;;;;;8.52;3.65;;;;;;;12.64;58.27;99823.00;4945954;28;20055;-61
2023/05/04 05:26:29;;;;;;;9.87;3.70;;;;;;;11.44;62.10;99823.47;4947356;28;20047;-61
2023/05/04 05:28:56;;;;;;;15.13;4.10;;;;;;;12.26;60.37;99836.00;4942436;28;20047;-62
2023/05/04 05:31:23;;;;;;;6.88;4.07;;;;;;;11.80;60.68;99834.19;4944898;28;20063;-62
2023/05/04 05:33:50;;;;;;;10.10;3.83;;;;;;;10.61;65.18;99831.59;4940873;28;20114;-61
2023/05/04 05:36:17;;;;;;;11.38;4.60;;;;;;;10.07;67.46;99836.81;4949634;28;20067;-61
2023/05/04 05:38:44;;;;;;;7.63;4.30;;;;;;;10.67;66.77;99836.06;4945015;28;20130;-61
2023/05/04 05:41:14;;;;;;;7.70;4.40;;;;;;;12.60;59.65;99840.66;4936099;28;20526;-61
2023/05/04 05:43:41;;;;;;;8.25;4.55;;;;;;;13.70;55.35;99841.13;4951908;28;20083;-62
2023/05/04 05:46:08;;;;;;;10.85;4.20;;;;;;;14.66;52.68;99838.84;4950796;28;20047;-62
2023/05/04 05:48:37;;;;;;;11.52;4.45;;;;;;;14.83;51.23;99852.25;4953866;28;20557;-62
2023/05/04 05:51:04;;;;;;;;;;;;;;;15.23;51.19;99853.66;4945180;28;20066;-62
2023/05/04 05:53:31;;;;;;;7.55;3.80;;;;;;;16.46;47.72;99848.97;4949359;28;19930;-62
2023/05/04 05:55:58;;;;;;;10.82;3.83;;;;;;;15.44;49.84;99846.53;4949371;28;20050;-63
2023/05/04 05:58:27;;;;;;;6.93;4.20;;;;;;;15.34;50.13;99842.94;4953769;28;20058;-62
2023/05/04 06:00:54;;;;;;;10.00;3.80;;;;;;;15.66;48.36;99830.19;4943877;28;20449;-62
2023/05/04 06:03:21;;;;;;;8.30;3.67;;;;;;;15.30;48.64;99832.66;4945573;28;20062;-62
2023/05/04 06:05:48;;;;;;;7.65;3.70;;;;;;;14.49;50.83;99839.97;4940211;28;20094;-62
2023/05/04 06:08:15;;;;;;;5.90;3.67;;;;;;;15.43;49.27;99836.00;4945371;28;20047;-62
2023/05/04 06:10:42;;;;;;;9.50;3.67;;;;;;;15.95;48.86;99838.78;4946353;28;20427;-62
2023/05/04 06:13:09;;;;;;;10.68;3.88;;;;;;;16.61;46.63;99835.47;4946229;28;20401;-62
2023/05/04 06:15:37;;;;;;;11.52;3.90;;;;;;;18.42;43.08;99839.59;4943242;28;20055;-62
2023/05/04 06:18:04;;;;;;;5.32;3.60;;;;;;;17.96;43.22;99837.09;4951456;28;20481;-62
2023/05/04 06:20:31;;;;;;;8.10;3.70;;;;;;;16.83;45.57;99837.19;4946734;28;20053;-62
2023/05/04 06:22:58;;;;;;;9.13;3.50;;;;;;;15.92;48.19;99833.88;4950835;28;20445;-62
2023/05/04 06:25:25;;;;;;;8.13;3.90;;;;;;;16.15;47.79;99829.13;4944683;28;20517;-62
2023/05/04 06:27:52;;;;;;;8.07;3.80;;;;;;;16.25;48.10;99825.63;4947910;28;20086;-62
2023/05/04 06:30:23;;;;;;;10.27;4.38;;;;;;;15.19;49.98;99830.94;4938904;28;20134;-62
2023/05/04 06:32:51;;;;;;;10.45;4.50;;;;;;;14.81;51.18;99837.38;4945636;28;20076;-62
2023/05/04 06:35:18;;;;;;;10.15;4.43;;;;;;;13.35;57.23;99840.38;4943423;28;20141;-62
2023/05/04 06:37:45;;;;;;;11.93;4.30;;;;;;;14.98;53.37;99834.56;4939810;28;20355;-62
2023/05/04 06:40:14;;;;;;;20.08;4.82;;;;;;;13.68;56.69;99832.50;4938149;28;20751;-62
2023/05/04 06:42:41;;;;;;;14.65;4.63;;;;;;;13.87;55.09;99836.53;4939120;28;20151;-62
2023/05/04 06:45:08;;;;;;;21.70;5.13;;;;;;;14.33;52.91;99831.72;4938194;28;20043;-62
2023/05/04 06:47:36;;;;;;;19.85;4.90;;;;;;;14.46;52.48;99834.00;4946787;28;20038;-62
2023/05/04 06:50:09;;;;;;;20.80;5.15;;;;;;;14.10;53.15;99823.88;4939935;28;20039;-62
2023/05/04 06:52:38;;;;;;;12.30;4.32;;;;;;;15.44;49.42;99821.41;4942850;28;20042;-62
2023/05/04 06:55:06;;;;;;;15.45;4.85;;;;;;;16.34;47.06;99821.34;4943888;28;20146;-62
2023/05/04 06:57:33;;;;;;;22.92;4.70;;;;;;;16.42;47.60;99820.00;4947651;28;20070;-62
2023/05/04 07:00:00;;;;;;;17.75;4.65;;;;;;;16.69;46.86;99817.09;4934132;28;20123;-62
2023/05/04 07:02:27;;;;;;;17.92;4.95;;;;;;;17.54;45.30;99813.84;4944980;28;20405;-62
2023/05/04 07:04:55;;;;;;;17.45;4.55;;;;;;;18.23;44.08;99825.88;4939973;28;20122;-62
2023/05/04 07:07:26;;;;;;;14.40;4.88;;;;;;;17.15;44.87;99817.16;4948616;28;20510;-62
2023/05/04 07:09:53;;;;;;;25.70;4.78;;;;;;;18.64;42.94;99821.00;4946144;28;20138;-62
2023/05/04 07:12:20;;;;;;;27.58;5.03;;;;;;;17.93;44.93;99821.38;4946501;28;20103;-62
2023/05/04 07:14:47;;;;;;;16.55;4.80;;;;;;;18.47;43.56;99820.56;4941761;28;20090;-62
2023/05/04 07:17:14;;;;;;;16.77;4.40;;;;;;;19.66;41.37;99821.28;4946833;28;20121;-62
2023/05/04 07:19:41;;;;;;;23.40;5.13;;;;;;;19.83;40.31;99818.94;4942560;28;20039;-62
2023/05/04 07:22:08;;;;;;;17.02;4.35;;;;;;;19.56;41.23;99820.28;4950417;28;20051;-62
2023/05/04 07:24:36;;;;;;;15.00;4.90;;;;;;;18.62;42.71;99817.78;4944032;28;20055;-62
2023/05/04 07:27:03;;;;;;;17.93;5.00;;;;;;;19.23;41.94;99810.28;4944408;28;20091;-62
2023/05/04 07:29:31;;;;;;;18.17;4.60;;;;;;;19.03;42.29;99817.50;4941901;28;20040;-62
2023/05/04 07:31:58;;;;;;;15.18;4.40;;;;;;;19.39;41.95;99812.59;4948663;28;20412;-62
2023/05/04 07:34:25;;;;;;;18.08;4.57;;;;;;;19.60;41.20;99810.47;4942624;28;20181;-62
2023/05/04 07:36:52;;;;;;;18.23;5.03;;;;;;;19.55;41.74;99812.44;4944012;28;20146;-62
2023/05/04 07:39:19;;;;;;;19.75;5.20;;;;;;;17.68;45.61;99814.91;4944660;28;20354;-62
2023/05/04 07:41:50;;;;;;;26.52;5.53;;;;;;;18.44;45.15;99805.66;4953878;28;20154;-62
2023/05/04 07:44:17;;;;;;;30.10;5.47;;;;;;;19.03;44.33;99801.22;4946710;28;20083;-62
2023/05/04 07:46:44;;;;;;;16.67;4.95;;;;;;;19.01;45.44;99795.25;4941070;28;20123;-62
2023/05/04 07:49:11;;;;;;;21.63;5.10;;;;;;;19.16;44.05;99794.31;4944151;28;20131;-62
2023/05/04 07:51:38;;;;;;;29.38;5.40;;;;;;;19.69;43.51;99798.97;4946116;28;20162;-62
2023/05/04 07:54:05;;;;;;;15.85;5.13;;;;;;;19.30;44.23;99795.28;4948987;28;20075;-62
2023/05/04 07:56:32;;;;;;;16.98;5.30;;;;;;;20.25;42.48;99792.84;4938367;28;20561;-62
2023/05/04 07:59:00;;;;;;;15.57;6.05;;;;;;;19.17;44.16;99791.31;4945381;28;20082;-62
2023/05/04 08:01:27;;;;;;;13.70;4.97;;;;;;;20.43;42.87;99786.59;4955783;28;20799;-62
2023/05/04 08:03:54;;;;;;;19.05;6.00;;;;;;;19.89;43.48;99785.13;4949299;28;20051;-62
2023/05/04 08:06:22;;;;;;;26.83;8.52;;;;;;;20.21;43.42;99784.44;4951238;28;20079;-62
2023/05/04 08:08:49;;;;;;;30.50;5.97;;;;;;;20.18;43.83;99787.75;4945331;28;20043;-62
2023/05/04 08:11:16;;;;;;;34.15;6.55;;;;;;;20.15;43.63;99782.91;4948016;28;20130;-62
2023/05/04 08:13:45;;;;;;;31.58;6.60;;;;;;;20.12;42.93;99783.50;4948735;28;20047;-62
2023/05/04 08:16:13;;;;;;;30.85;6.75;;;;;;;20.16;42.99;99781.00;4947291;28;20055;-62
2023/05/04 08:18:40;;;;;;;60.65;9.20;;;;;;;20.50;43.03;99782.72;4949334;28;20462;-62
2023/05/04 08:21:07;;;;;;;65.32;8.23;;;;;;;21.01;42.79;99774.56;4940911;28;20416;-62
2023/05/04 08:23:34;;;;;;;68.20;8.20;;;;;;;20.46;43.63;99777.84;4950125;28;20397;-62
2023/05/04 08:26:02;;;;;;;50.20;7.85;;;;;;;20.94;43.24;99770.59;4948694;28;20048;-62
2023/05/04 08:28:29;;;;;;;57.80;7.60;;;;;;;21.00;43.42;99767.50;4944616;28;20197;-62
2023/05/04 08:30:56;;;;;;;53.22;6.80;;;;;;;20.30;45.59;99762.84;4945948;28;20072;-62
2023/05/04 08:33:25;;;;;;;16.60;5.18;;;;;;;20.98;41.24;99761.53;4943891;28;20051;-62
2023/05/04 08:35:52;;;;;;;33.47;5.53;;;;;;;21.04;43.16;99764.97;4950533;28;20055;-62
2023/05/04 08:38:19;;;;;;;30.23;5.05;;;;;;;20.86;41.75;99764.72;4946109;28;20082;-62
2023/05/04 08:40:46;;;;;;;10.68;4.93;;;;;;;19.26;44.70;99761.59;4946640;28;20066;-62
2023/05/04 08:43:13;;;;;;;13.50;4.95;;;;;;;19.94;41.81;99759.78;4951162;28;20623;-62
2023/05/04 08:45:40;;;;;;;9.70;4.88;;;;;;;18.69;44.26;99763.97;4946092;28;20162;-62
2023/05/04 08:48:07;;;;;;;10.95;4.50;;;;;;;18.09;46.14;99765.97;4947673;28;20058;-62
2023/05/04 08:50:36;;;;;;;8.50;5.07;;;;;;;18.60;44.81;99754.81;4943083;28;20047;-61
2023/05/04 08:53:05;;;;;;;10.05;4.90;;;;;;;17.54;47.52;99760.44;4945401;28;20507;-61
2023/05/04 08:55:33;;;;;;;10.13;5.38;;;;;;;18.09;47.14;99746.97;4935723;28;20142;-61
2023/05/04 08:58:01;;;;;;;9.52;5.45;;;;;;;17.73;46.87;99751.75;4942506;28;20066;-61
2023/05/04 09:00:28;;;;;;;7.18;4.50;;;;;;;18.39;47.82;99742.47;4941896;28;20073;-61
2023/05/04 09:02:55;;;;;;;8.95;5.15;;;;;;;19.00;45.93;99742.03;4944078;28;20454;-61
2023/05/04 09:05:22;;;;;;;9.77;5.80;;;;;;;19.13;45.21;99738.63;4946856;28;20370;-61
2023/05/04 09:07:51;;;;;;;8.30;5.80;;;;;;;17.52;48.17;99742.84;4952474;28;20502;-61
2023/05/04 09:10:18;;;;;;;10.52;5.60;;;;;;;17.41;49.15;99739.38;4937450;28;20048;-61
2023/05/04 09:12:46;;;;;;;9.05;5.80;;;;;;;17.48;49.51;99739.09;4940056;28;20490;-61
2023/05/04 09:15:17;;;;;;;7.75;5.53;;;;;;;17.57;48.54;99732.00;4938111;28;20048;-61
2023/05/04 09:17:44;;;;;;;8.63;5.55;;;;;;;17.69;48.78;99725.16;4944171;28;20063;-62
2023/05/04 09:20:13;;;;;;;9.98;5.45;;;;;;;18.92;47.74;99723.63;4945334;28;20074;-61
2023/05/04 09:22:40;;;;;;;9.93;5.85;;;;;;;18.45;47.15;99719.66;4948419;28;20057;-61
2023/05/04 09:25:11;;;;;;;10.23;5.80;;;;;;;18.03;48.64;99727.22;4942401;28;20514;-61
2023/05/04 09:27:40;;;;;;;9.57;5.75;;;;;;;18.04;48.22;99725.31;4942036;28;20082;-61
2023/05/04 09:30:10;;;;;;;8.13;5.35;;;;;;;18.63;47.53;99721.66;4933246;28;20044;-61
2023/05/04 09:32:37;;;;;;;;;;;;;;;18.28;47.48;99715.41;4939625;28;20047;-61
2023/05/04 09:35:06;;;;;;;7.47;4.90;;;;;;;18.53;47.66;99721.75;4938370;28;20230;-61
2023/05/04 09:37:32;;;;;;;8.23;5.13;;;;;;;19.67;45.49;99712.28;4946167;28;20083;-61
2023/05/04 09:40:00;;;;;;;8.77;5.32;;;;;;;18.87;45.34;99716.34;4940373;28;20040;-61
2023/05/04 09:42:28;;;;;;;13.00;5.45;;;;;;;19.18;46.08;99716.03;4950818;28;20113;-61
2023/05/04 09:44:59;;;;;;;8.38;4.97;;;;;;;19.36;44.48;99712.56;4942625;28;20530;-61
2023/05/04 09:47:37;;;;;;;10.82;4.82;;;;;;;18.72;46.03;99708.28;4947139;28;20045;-61
2023/05/04 09:50:16;;;;;;;9.30;4.70;;;;;;;18.69;45.82;99708.84;4945149;28;20685;-61
2023/05/04 09:52:44;;;;;;;9.95;5.43;;;;;;;18.92;45.83;99701.88;4937146;28;20134;-61
2023/05/04 09:55:12;;;;;;;9.70;5.60;;;;;;;18.42;44.33;99693.03;4941323;28;20553;-61
2023/05/04 09:57:41;;;;;;;9.00;4.60;;;;;;;18.69;45.23;99687.13;4942434;28;20438;-61
2023/05/04 10:00:11;;;;;;;10.63;4.73;;;;;;;19.14;44.72;99685.09;4948059;28;20098;-61
2023/05/04 10:02:38;;;;;;;9.88;4.57;;;;;;;19.71;42.60;99688.81;4944379;28;20070;-61
2023/05/04 10:05:06;;;;;;;8.07;5.00;;;;;;;18.47;44.83;99693.00;4936064;28;20577;-61
2023/05/04 10:07:33;;;;;;;9.95;4.93;;;;;;;18.75;43.91;99686.00;4943930;28;20050;-61
2023/05/04 10:10:00;;;;;;;11.63;5.47;;;;;;;18.73;44.16;99686.28;4945169;28;20047;-61
2023/05/04 10:12:27;;;;;;;10.50;4.85;;;;;;;19.04;44.68;99667.00;4947958;28;20053;-61
2023/05/04 10:14:56;;;;;;;7.78;4.40;;;;;;;19.15;44.28;99663.09;4948382;28;20071;-61
2023/05/04 10:17:32;;;;;;;6.78;4.40;;;;;;;20.40;42.71;99655.72;4954450;28;20105;-61
2023/05/04 10:20:22;;;;;;;9.05;4.72;;;;;;;19.17;42.64;99666.34;4949363;28;20285;-61
2023/05/04 10:23:02;;;;;;;6.65;4.38;;;;;;;19.97;42.59;99653.94;4947252;28;20395;-61
2023/05/04 10:25:33;;;;;;;;;;;;;;;19.17;41.20;99649.22;4942354;28;20043;-61
2023/05/04 10:28:02;;;;;;;7.15;3.85;;;;;;;18.76;41.66;99649.63;4944014;28;19938;-61
2023/05/04 10:30:30;;;;;;;8.07;4.18;;;;;;;19.45;40.84;99633.94;4951479;28;20061;-61
2023/05/04 10:32:58;;;;;;;9.50;4.20;;;;;;;19.31;39.43;99644.69;4945048;28;20396;-61
2023/05/04 10:35:25;;;;;;;8.73;4.07;;;;;;;19.95;39.90;99634.38;4947149;28;20059;-61
2023/05/04 10:37:53;;;;;;;5.57;3.83;;;;;;;19.67;39.61;99627.97;4939159;28;20425;-61
2023/05/04 10:40:21;;;;;;;11.95;4.47;;;;;;;19.03;39.75;99632.78;4941848;28;20475;-61
2023/05/04 10:42:48;;;;;;;6.25;4.00;;;;;;;18.92;39.32;99623.97;4938260;28;20587;-61
2023/05/04 10:45:15;;;;;;;6.25;3.72;;;;;;;19.58;38.99;99618.81;4955431;28;20125;-61
2023/05/04 10:47:43;;;;;;;7.03;3.70;;;;;;;19.26;39.76;99604.00;4937277;28;20051;-61
2023/05/04 10:50:13;;;;;;;7.40;3.60;;;;;;;20.07;38.78;99606.72;4946904;28;20118;-61
2023/05/04 10:52:46;;;;;;;6.80;4.15;;;;;;;19.02;40.26;99604.03;4939269;28;20051;-61
2023/05/04 10:55:13;;;;;;;6.63;4.00;;;;;;;19.63;39.38;99620.66;4946209;28;20566;-61
2023/05/04 10:57:48;;;;;;;8.73;3.72;;;;;;;19.19;39.70;99603.53;4945971;28;20121;-61
2023/05/04 11:00:16;;;;;;;5.70;3.40;;;;;;;19.51;41.15;99605.56;4939552;28;20039;-61
2023/05/04 11:02:45;;;;;;;7.97;3.78;;;;;;;19.91;39.53;99606.13;4943427;28;20047;-61
2023/05/04 11:05:17;;;;;;;7.70;3.60;;;;;;;19.97;40.24;99602.25;4940573;28;20248;-62
2023/05/04 11:07:44;;;;;;;7.43;3.67;;;;;;;20.33;38.22;99598.94;4947390;28;20055;-62
2023/05/04 11:10:21;;;;;;;6.32;3.75;;;;;;;19.43;39.28;99592.66;4940427;28;20059;-62
2023/05/04 11:12:48;;;;;;;7.05;3.83;;;;;;;19.52;38.94;99582.75;4950884;28;20039;-61
2023/05/04 11:15:15;;;;;;;11.38;3.80;;;;;;;20.08;38.84;99581.13;4936433;28;20044;-61
2023/05/04 11:17:47;;;;;;;7.53;3.90;;;;;;;20.68;38.24;99585.84;4930568;28;20122;-62
2023/05/04 11:20:21;;;;;;;7.40;3.80;;;;;;;19.98;39.79;99581.28;4946566;28;20095;-62
2023/05/04 11:22:48;;;;;;;6.70;3.83;;;;;;;19.83;39.81;99566.00;4936930;28;20047;-62
2023/05/04 11:25:15;;;;;;;8.55;3.60;;;;;;;19.72;38.57;99565.34;4940730;28;20054;-61
2023/05/04 11:27:43;;;;;;;7.72;4.05;;;;;;;19.50;39.24;99565.09;4942019;28;20042;-61
2023/05/04 11:30:11;;;;;;;6.80;3.97;;;;;;;20.38;38.79;99559.94;4942692;28;20633;-61
2023/05/04 11:32:38;;;;;;;8.30;3.63;;;;;;;20.31;36.34;99552.16;4944137;28;20050;-63
2023/05/04 11:35:08;;;;;;;9.00;4.03;;;;;;;20.48;37.36;99546.94;4937628;28;20054;-62
2023/05/04 11:37:39;;;;;;;6.93;3.85;;;;;;;20.13;36.74;99553.03;4933668;28;20134;-62